createdAt,value
2017-11-29T00:00:40.855Z,89.69
2017-11-29T00:03:11.251Z,89.63
2017-11-29T00:05:38.945Z,89.82
2017-11-29T00:08:08.459Z,89.67
2017-11-29T00:10:36.154Z,89.65
2017-11-29T00:13:04.662Z,89.68
2017-11-29T00:15:32.334Z,89.80
2017-11-29T00:18:00.947Z,89.76
2017-11-29T00:20:28.576Z,90.04
2017-11-29T00:22:58.024Z,89.95
2017-11-29T00:25:25.913Z,90.10
2017-11-29T00:27:55.300Z,90.20
2017-11-29T00:30:26.698Z,90.46
2017-11-29T00:32:54.422Z,90.42
2017-11-29T00:35:22.863Z,90.42
2017-11-29T00:37:50.528Z,90.57
2017-11-29T00:40:20.020Z,90.75
2017-11-29T00:42:48.510Z,90.77
2017-11-29T00:45:16.214Z,90.90
2017-11-29T00:47:45.540Z,90.92
2017-11-29T00:50:13.484Z,90.83
2017-11-29T00:52:42.807Z,90.86
2017-11-29T00:55:10.540Z,90.79
2017-11-29T00:57:38.412Z,90.77
2017-11-29T01:00:06.446Z,90.74
2017-11-29T01:02:34.096Z,90.71
2017-11-29T01:05:01.846Z,90.74
2017-11-29T01:07:31.344Z,90.83
2017-11-29T01:09:59.012Z,90.96
2017-11-29T01:12:26.852Z,91.15
2017-11-29T01:14:54.602Z,90.99
2017-11-29T01:17:24.033Z,90.86
2017-11-29T01:19:53.342Z,90.91
2017-11-29T01:22:21.048Z,90.78
2017-11-29T01:24:48.678Z,90.88
2017-11-29T01:27:16.422Z,90.95
2017-11-29T01:29:44.807Z,91.05
2017-11-29T01:32:13.271Z,90.95
2017-11-29T01:34:40.941Z,91.05
2017-11-29T01:37:10.412Z,91.12
2017-11-29T01:39:40.775Z,91.19
2017-11-29T01:42:08.597Z,91.17
2017-11-29T01:44:36.325Z,91.20
2017-11-29T01:47:03.987Z,91.19
2017-11-29T01:49:33.410Z,91.27
2017-11-29T01:52:02.722Z,91.36
2017-11-29T01:54:30.430Z,91.42
2017-11-29T01:57:00.813Z,91.54
2017-11-29T01:59:28.569Z,91.57
2017-11-29T02:01:56.398Z,91.46
2017-11-29T02:04:24.054Z,91.59
2017-11-29T02:06:53.609Z,91.64
2017-11-29T02:09:21.426Z,91.79
2017-11-29T02:11:50.859Z,91.98
2017-11-29T02:14:18.598Z,91.98
2017-11-29T02:16:47.857Z,92.07
2017-11-29T02:19:16.009Z,92.04
2017-11-29T02:21:45.259Z,91.98
2017-11-29T02:24:13.710Z,92.03
2017-11-29T02:26:42.698Z,91.88
2017-11-29T02:29:12.154Z,91.93
2017-11-29T02:31:39.853Z,92.03
2017-11-29T02:34:07.461Z,92.14
2017-11-29T02:36:35.937Z,92.27
2017-11-29T02:39:03.741Z,92.31
2017-11-29T02:41:45.039Z,92.17
2017-11-29T02:44:13.461Z,92.35
2017-11-29T02:46:41.129Z,92.39
2017-11-29T02:49:08.802Z,92.45
2017-11-29T02:51:36.983Z,92.65
2017-11-29T02:54:04.630Z,92.69
2017-11-29T02:56:34.095Z,92.79
2017-11-29T02:59:02.517Z,92.79
2017-11-29T03:01:31.807Z,92.81
2017-11-29T03:04:01.286Z,92.84
2017-11-29T03:06:29.721Z,92.74
2017-11-29T03:08:59.169Z,92.71
2017-11-29T03:11:26.963Z,92.86
2017-11-29T03:13:55.608Z,92.90
2017-11-29T03:16:24.163Z,92.91
2017-11-29T03:18:51.908Z,92.96
2017-11-29T03:21:20.011Z,92.89
2017-11-29T03:23:49.379Z,92.85
2017-11-29T03:26:21.255Z,92.83
2017-11-29T03:28:48.981Z,92.73
2017-11-29T03:31:16.650Z,92.77
2017-11-29T03:33:46.129Z,92.65
2017-11-29T03:36:13.813Z,92.66
2017-11-29T03:38:41.537Z,92.56
2017-11-29T03:41:09.219Z,92.53
2017-11-29T03:43:39.048Z,92.43
2017-11-29T03:46:07.435Z,92.46
2017-11-29T03:48:35.174Z,92.57
2017-11-29T03:51:02.934Z,92.53
2017-11-29T03:53:31.630Z,92.78
2017-11-29T03:56:01.079Z,92.93
2017-11-29T03:58:30.037Z,92.82
2017-11-29T04:01:00.357Z,92.74
2017-11-29T04:03:28.047Z,92.70
2017-11-29T04:05:57.341Z,92.91
2017-11-29T04:08:25.030Z,92.89
2017-11-29T04:10:52.687Z,92.82
2017-11-29T04:13:20.472Z,92.84
2017-11-29T04:15:51.491Z,93.00
2017-11-29T04:18:19.948Z,93.06
2017-11-29T04:20:47.700Z,92.99
2017-11-29T04:23:18.001Z,93.15
2017-11-29T04:25:45.663Z,93.16
2017-11-29T04:28:15.971Z,93.08
2017-11-29T04:30:47.971Z,93.13
2017-11-29T04:33:16.491Z,93.08
2017-11-29T04:35:45.013Z,92.95
2017-11-29T04:38:12.701Z,92.86
2017-11-29T04:40:40.426Z,92.67
2017-11-29T04:43:08.835Z,92.69
2017-11-29T04:45:36.519Z,92.71
2017-11-29T04:48:06.027Z,92.66
2017-11-29T04:50:35.380Z,92.68
2017-11-29T04:53:04.852Z,92.61
2017-11-29T04:55:32.605Z,92.60
2017-11-29T04:58:01.117Z,92.57
2017-11-29T05:00:29.191Z,92.69
2017-11-29T05:02:58.675Z,92.99
2017-11-29T05:05:29.066Z,92.96
2017-11-29T05:07:58.461Z,92.83
2017-11-29T05:10:28.009Z,93.05
2017-11-29T05:12:57.069Z,93.08
2017-11-29T05:15:31.721Z,93.20
2017-11-29T05:18:01.611Z,93.19
2017-11-29T05:20:30.149Z,93.33
2017-11-29T05:22:59.558Z,93.49
2017-11-29T05:25:30.217Z,93.49
2017-11-29T05:27:57.956Z,93.39
2017-11-29T05:30:28.351Z,93.31
2017-11-29T05:32:56.069Z,93.26
2017-11-29T05:35:24.469Z,93.26
2017-11-29T05:37:52.113Z,93.21
2017-11-29T05:40:19.725Z,93.20
2017-11-29T05:42:49.154Z,93.18
2017-11-29T05:45:17.978Z,93.21
2017-11-29T05:47:45.635Z,93.23
2017-11-29T05:50:15.067Z,93.20
2017-11-29T05:52:46.022Z,93.10
2017-11-29T05:55:13.695Z,93.02
2017-11-29T05:57:43.080Z,93.19
2017-11-29T06:00:13.414Z,93.35
2017-11-29T06:02:42.886Z,93.40
2017-11-29T06:05:10.649Z,93.46
2017-11-29T06:07:40.041Z,93.44
2017-11-29T06:10:11.577Z,93.34
2017-11-29T06:12:40.932Z,93.27
2017-11-29T06:15:08.677Z,93.17
2017-11-29T06:17:36.302Z,93.21
2017-11-29T06:20:05.960Z,93.10
2017-11-29T06:22:36.625Z,93.08
2017-11-29T06:25:05.156Z,92.96
2017-11-29T06:27:34.708Z,92.82
2017-11-29T06:30:03.488Z,92.76
2017-11-29T06:32:32.774Z,92.59
2017-11-29T06:35:00.600Z,92.50
2017-11-29T06:37:28.269Z,92.59
2017-11-29T06:39:56.718Z,92.63
2017-11-29T06:42:24.688Z,92.77
2017-11-29T06:44:52.476Z,92.86
2017-11-29T06:47:22.804Z,92.85
2017-11-29T06:49:51.205Z,92.83
2017-11-29T06:52:20.598Z,92.72
2017-11-29T06:54:49.156Z,92.60
2017-11-29T06:57:17.115Z,92.41
2017-11-29T06:59:47.076Z,92.35
2017-11-29T07:02:15.521Z,92.43
2017-11-29T07:04:43.243Z,92.74
2017-11-29T07:07:11.656Z,92.96
2017-11-29T07:09:40.054Z,92.90
2017-11-29T07:12:09.414Z,92.96
2017-11-29T07:14:38.851Z,93.06
2017-11-29T07:17:06.741Z,93.18
2017-11-29T07:19:35.259Z,93.22
2017-11-29T07:22:03.025Z,93.00
2017-11-29T07:24:30.839Z,93.11
2017-11-29T07:26:59.224Z,93.24
2017-11-29T07:29:28.736Z,93.09
2017-11-29T07:31:59.124Z,93.14
2017-11-29T07:34:26.821Z,93.22
2017-11-29T07:36:56.436Z,93.16
2017-11-29T07:39:25.816Z,93.00
2017-11-29T07:41:54.346Z,92.97
2017-11-29T07:44:22.003Z,92.83
2017-11-29T07:46:49.706Z,92.38
2017-11-29T07:49:19.114Z,92.39
2017-11-29T07:51:48.366Z,92.45
2017-11-29T07:54:18.835Z,92.48
2017-11-29T07:56:48.454Z,92.63
2017-11-29T07:59:16.176Z,92.68
2017-11-29T08:01:44.660Z,92.63
2017-11-29T08:04:15.033Z,92.49
2017-11-29T08:06:42.713Z,92.41
2017-11-29T08:09:13.019Z,92.08
2017-11-29T08:11:42.567Z,92.03
2017-11-29T08:14:11.012Z,91.76
2017-11-29T08:16:39.682Z,91.55
2017-11-29T08:19:09.290Z,91.56
2017-11-29T08:21:38.642Z,91.70
2017-11-29T08:24:06.381Z,91.71
2017-11-29T08:26:34.043Z,91.56
2017-11-29T08:29:04.376Z,91.58
2017-11-29T08:31:33.663Z,91.41
2017-11-29T08:34:01.365Z,91.17
2017-11-29T08:36:31.656Z,90.99
2017-11-29T08:38:59.439Z,90.76
2017-11-29T08:41:28.081Z,90.77
2017-11-29T08:43:55.783Z,90.55
2017-11-29T08:46:25.066Z,90.50
2017-11-29T08:48:56.301Z,90.42
2017-11-29T08:51:23.984Z,90.24
2017-11-29T08:53:51.695Z,90.28
2017-11-29T08:56:21.044Z,90.44
2017-11-29T08:58:48.762Z,90.43
2017-11-29T09:01:16.392Z,90.32
2017-11-29T09:03:44.867Z,89.97
2017-11-29T09:06:14.237Z,89.71
2017-11-29T09:08:43.752Z,89.57
2017-11-29T09:11:13.051Z,89.42
2017-11-29T09:13:40.849Z,89.22
2017-11-29T09:16:09.237Z,88.82
2017-11-29T09:18:38.645Z,88.49
2017-11-29T09:21:07.953Z,88.05
2017-11-29T09:23:37.553Z,87.95
2017-11-29T09:26:05.367Z,87.14
2017-11-29T09:28:34.824Z,87.37
2017-11-29T09:31:02.530Z,86.92
2017-11-29T09:33:31.893Z,87.09
2017-11-29T09:36:01.287Z,86.23
2017-11-29T09:38:30.557Z,86.21
2017-11-29T09:40:59.102Z,86.58
2017-11-29T09:43:26.844Z,86.82
2017-11-29T09:45:56.324Z,86.70
2017-11-29T09:48:26.690Z,86.60
2017-11-29T09:50:55.158Z,86.50
2017-11-29T09:53:23.559Z,86.18
2017-11-29T09:55:51.255Z,84.90
2017-11-29T09:58:19.700Z,85.06
2017-11-29T10:00:48.109Z,84.84
2017-11-29T10:03:15.963Z,82.33
2017-11-29T10:05:45.196Z,81.66
2017-11-29T10:08:14.514Z,82.06
2017-11-29T10:10:42.277Z,82.65
2017-11-29T10:13:10.824Z,83.22
2017-11-29T10:15:41.162Z,83.51
2017-11-29T10:18:08.873Z,83.86
2017-11-29T10:20:40.913Z,83.73
2017-11-29T10:23:09.588Z,82.95
2017-11-29T10:25:38.261Z,83.62
2017-11-29T10:28:05.979Z,84.23
2017-11-29T10:30:36.324Z,84.02
2017-11-29T10:33:04.034Z,84.21
2017-11-29T10:35:34.539Z,83.47
2017-11-29T10:38:02.364Z,83.42
2017-11-29T10:40:29.990Z,82.46
2017-11-29T10:42:57.645Z,82.58
2017-11-29T10:45:26.981Z,81.92
2017-11-29T10:47:57.205Z,82.63
2017-11-29T10:50:24.964Z,82.57
2017-11-29T10:52:52.692Z,82.29
2017-11-29T10:55:21.111Z,82.00
2017-11-29T10:57:50.512Z,81.95
2017-11-29T11:00:24.975Z,82.04
2017-11-29T11:02:52.635Z,82.17
2017-11-29T11:05:22.140Z,82.62
2017-11-29T11:07:49.936Z,82.67
2017-11-29T11:10:20.248Z,83.05
2017-11-29T11:12:47.953Z,83.32
2017-11-29T11:15:17.440Z,82.04
2017-11-29T11:17:45.368Z,81.55
2017-11-29T11:20:13.843Z,81.72
2017-11-29T11:22:41.528Z,80.88
2017-11-29T11:25:09.987Z,81.58
2017-11-29T11:27:39.632Z,82.15
2017-11-29T11:30:07.304Z,82.05
2017-11-29T11:32:35.131Z,82.31
2017-11-29T11:35:04.739Z,81.92
2017-11-29T11:37:33.454Z,82.21
2017-11-29T11:40:02.967Z,82.39
2017-11-29T11:42:31.657Z,82.30
2017-11-29T11:45:01.085Z,81.77
2017-11-29T11:47:28.730Z,81.79
2017-11-29T11:49:57.196Z,81.90
2017-11-29T11:52:24.924Z,82.84
2017-11-29T11:54:55.202Z,82.92
2017-11-29T11:57:25.493Z,81.97
2017-11-29T11:59:54.046Z,83.00
2017-11-29T12:02:24.293Z,83.32
2017-11-29T12:04:53.776Z,83.21
2017-11-29T12:07:23.096Z,83.14
2017-11-29T12:09:50.842Z,82.77
2017-11-29T12:12:20.255Z,82.54
2017-11-29T12:14:48.783Z,82.88
2017-11-29T12:17:19.103Z,82.73
2017-11-29T12:19:46.861Z,83.11
2017-11-29T12:22:16.134Z,82.87
2017-11-29T12:24:45.528Z,82.52
2017-11-29T12:27:15.092Z,82.60
2017-11-29T12:29:43.597Z,82.51
2017-11-29T12:32:11.291Z,82.48
2017-11-29T12:34:40.743Z,82.41
2017-11-29T12:37:10.156Z,82.39
2017-11-29T12:39:37.865Z,82.23
2017-11-29T12:42:06.308Z,81.69
2017-11-29T12:44:34.273Z,81.29
2017-11-29T12:47:02.782Z,81.11
2017-11-29T12:49:42.202Z,81.50
2017-11-29T12:52:11.659Z,81.38
2017-11-29T12:54:41.163Z,80.78
2017-11-29T12:57:09.915Z,80.73
2017-11-29T12:59:39.339Z,80.82
2017-11-29T13:02:07.998Z,80.22
2017-11-29T13:04:35.705Z,80.54
2017-11-29T13:07:05.004Z,80.94
2017-11-29T13:09:32.730Z,80.80
2017-11-29T13:12:01.203Z,79.93
2017-11-29T13:14:30.653Z,80.77
2017-11-29T13:16:59.227Z,80.94
2017-11-29T13:19:28.608Z,80.01
2017-11-29T13:21:57.100Z,79.98
2017-11-29T13:24:24.764Z,78.94
2017-11-29T13:26:52.432Z,79.11
2017-11-29T13:29:20.114Z,79.00
2017-11-29T13:31:50.543Z,78.83
2017-11-29T13:34:20.087Z,78.54
2017-11-29T13:36:47.911Z,78.98
2017-11-29T13:39:17.308Z,79.50
2017-11-29T13:41:45.798Z,79.67
2017-11-29T13:44:13.518Z,79.96
2017-11-29T13:46:41.182Z,80.38
2017-11-29T13:49:11.468Z,80.11
2017-11-29T13:51:41.446Z,79.51
2017-11-29T13:54:09.219Z,79.76
2017-11-29T13:56:37.673Z,79.96
2017-11-29T13:59:05.463Z,79.46
2017-11-29T14:01:33.189Z,79.91
2017-11-29T14:04:00.846Z,80.35
2017-11-29T14:06:29.239Z,80.62
2017-11-29T14:08:59.541Z,80.82
2017-11-29T14:11:27.218Z,81.39
2017-11-29T14:13:55.052Z,81.13
2017-11-29T14:16:24.565Z,81.13
2017-11-29T14:18:52.272Z,81.30
2017-11-29T14:21:21.581Z,81.55
2017-11-29T14:23:51.127Z,81.54
2017-11-29T14:26:19.895Z,81.47
2017-11-29T14:28:51.941Z,81.52
2017-11-29T14:31:19.603Z,81.89
2017-11-29T14:33:48.977Z,82.04
2017-11-29T14:36:17.525Z,82.30
2017-11-29T14:38:46.059Z,82.59
2017-11-29T14:41:13.930Z,82.96
2017-11-29T14:43:41.634Z,83.31
2017-11-29T14:46:11.165Z,83.27
2017-11-29T14:48:38.976Z,83.52
2017-11-29T14:51:08.577Z,83.84
2017-11-29T14:53:38.190Z,84.16
2017-11-29T14:56:11.048Z,84.38
2017-11-29T14:58:41.684Z,84.60
2017-11-29T15:01:15.256Z,84.91
2017-11-29T15:03:47.051Z,85.18
2017-11-29T15:06:18.119Z,85.51
2017-11-29T15:08:46.190Z,85.95
2017-11-29T15:11:15.588Z,86.03
2017-11-29T15:13:43.332Z,85.98
2017-11-29T15:16:12.047Z,85.87
2017-11-29T15:18:41.677Z,85.79
2017-11-29T15:21:10.170Z,85.91
2017-11-29T15:23:37.865Z,86.15
2017-11-29T15:26:07.277Z,86.37
2017-11-29T15:28:35.141Z,86.47
2017-11-29T15:31:03.587Z,86.48
2017-11-29T15:33:33.018Z,86.57
2017-11-29T15:36:01.775Z,86.81
2017-11-29T15:38:29.477Z,87.02
2017-11-29T15:40:58.908Z,86.47
2017-11-29T15:43:29.889Z,86.18
2017-11-29T15:45:57.863Z,86.34
2017-11-29T15:48:26.448Z,86.21
2017-11-29T15:50:54.162Z,86.29
2017-11-29T15:53:24.793Z,86.26
2017-11-29T15:55:55.195Z,86.39
2017-11-29T15:58:24.803Z,86.63
2017-11-29T16:00:54.412Z,86.96
2017-11-29T16:03:26.324Z,86.96
2017-11-29T16:05:55.782Z,87.04
2017-11-29T16:08:24.252Z,87.12
2017-11-29T16:10:53.715Z,87.04
2017-11-29T16:13:23.610Z,87.12
2017-11-29T16:15:51.337Z,87.40
2017-11-29T16:18:20.228Z,87.45
2017-11-29T16:20:47.913Z,87.58
2017-11-29T16:23:17.347Z,87.55
2017-11-29T16:25:46.753Z,87.59
2017-11-29T16:28:14.490Z,87.66
2017-11-29T16:30:42.206Z,87.60
2017-11-29T16:33:09.890Z,87.72
2017-11-29T16:35:37.705Z,87.63
2017-11-29T16:38:08.145Z,87.80
2017-11-29T16:40:37.673Z,87.93
2017-11-29T16:43:05.456Z,88.00
2017-11-29T16:45:35.971Z,88.24
2017-11-29T16:48:03.741Z,88.18
2017-11-29T16:50:33.189Z,88.14
2017-11-29T16:53:01.079Z,88.27
2017-11-29T16:55:30.026Z,88.40
2017-11-29T16:57:59.171Z,88.35
2017-11-29T17:00:27.778Z,88.39
2017-11-29T17:02:56.877Z,88.37
2017-11-29T17:05:24.566Z,88.40
2017-11-29T17:07:53.951Z,88.41
2017-11-29T17:10:21.702Z,88.45
2017-11-29T17:12:51.129Z,88.49
2017-11-29T17:15:19.624Z,88.66
2017-11-29T17:17:47.359Z,88.70
2017-11-29T17:20:15.073Z,88.78
2017-11-29T17:22:44.457Z,88.82
2017-11-29T17:25:14.837Z,88.89
2017-11-29T17:27:42.757Z,88.94
2017-11-29T17:30:13.091Z,88.98
2017-11-29T17:32:40.800Z,89.17
2017-11-29T17:35:10.540Z,89.22
2017-11-29T17:37:39.895Z,89.24
2017-11-29T17:40:07.685Z,89.24
2017-11-29T17:42:36.402Z,89.22
2017-11-29T17:45:04.290Z,89.32
2017-11-29T17:47:34.607Z,89.22
2017-11-29T17:50:03.109Z,89.23
2017-11-29T17:52:31.581Z,88.99
2017-11-29T17:55:00.965Z,88.90
2017-11-29T17:57:30.358Z,88.91
2017-11-29T17:59:58.866Z,89.12
2017-11-29T18:02:28.455Z,89.48
2017-11-29T18:04:56.256Z,89.38
2017-11-29T18:07:25.589Z,89.31
2017-11-29T18:09:55.251Z,89.39
2017-11-29T18:12:24.876Z,89.96
2017-11-29T18:14:53.354Z,89.94
2017-11-29T18:17:21.146Z,90.10
2017-11-29T18:19:53.353Z,90.37
2017-11-29T18:22:21.104Z,90.59
2017-11-29T18:24:49.636Z,90.77
2017-11-29T18:27:19.306Z,90.95
2017-11-29T18:29:47.801Z,90.97
2017-11-29T18:32:15.527Z,90.99
2017-11-29T18:34:44.104Z,91.15
2017-11-29T18:37:13.794Z,91.21
2017-11-29T18:39:41.664Z,91.41
2017-11-29T18:42:09.408Z,91.57
2017-11-29T18:44:37.236Z,91.51
2017-11-29T18:47:06.901Z,91.72
2017-11-29T18:49:36.807Z,91.67
2017-11-29T18:52:08.042Z,91.79
2017-11-29T18:54:35.955Z,91.83
2017-11-29T18:57:04.412Z,91.94
2017-11-29T18:59:32.129Z,91.88
2017-11-29T19:02:00.024Z,91.86
2017-11-29T19:04:28.683Z,92.13
2017-11-29T19:06:56.557Z,92.27
2017-11-29T19:09:24.260Z,92.29
2017-11-29T19:11:52.096Z,92.19
2017-11-29T19:14:20.834Z,91.99
2017-11-29T19:16:50.694Z,91.76
2017-11-29T19:19:18.671Z,91.97
2017-11-29T19:21:49.138Z,92.12
2017-11-29T19:24:17.213Z,92.23
2017-11-29T19:26:44.938Z,92.33
2017-11-29T19:29:12.795Z,92.37
2017-11-29T19:31:42.425Z,92.21
2017-11-29T19:34:10.507Z,92.27
2017-11-29T19:36:40.085Z,92.31
2017-11-29T19:39:07.959Z,92.39
2017-11-29T19:41:38.329Z,92.35
2017-11-29T19:44:06.210Z,92.33
2017-11-29T19:46:36.538Z,92.34
2017-11-29T19:49:04.449Z,92.20
2017-11-29T19:51:34.831Z,91.98
2017-11-29T19:54:02.795Z,92.14
2017-11-29T19:56:30.670Z,92.22
2017-11-29T19:58:59.465Z,92.31
2017-11-29T20:01:27.535Z,92.33
2017-11-29T20:03:55.290Z,92.36
2017-11-29T20:06:24.669Z,92.42
2017-11-29T20:08:55.057Z,92.43
2017-11-29T20:11:24.599Z,92.38
2017-11-29T20:13:52.421Z,92.38
2017-11-29T20:16:22.926Z,92.45
2017-11-29T20:18:50.812Z,92.48
2017-11-29T20:21:18.906Z,92.62
2017-11-29T20:23:48.395Z,92.75
2017-11-29T20:26:19.219Z,92.78
2017-11-29T20:28:47.101Z,92.78
2017-11-29T20:31:15.286Z,92.93
2017-11-29T20:33:43.142Z,93.12
2017-11-29T20:36:10.924Z,92.97
2017-11-29T20:38:43.580Z,93.17
2017-11-29T20:41:13.213Z,93.16
2017-11-29T20:43:41.504Z,93.08
2017-11-29T20:46:10.199Z,93.00
2017-11-29T20:48:38.840Z,92.90
2017-11-29T21:04:12.316Z,92.96
2017-11-29T21:06:40.025Z,92.99
2017-11-29T21:09:07.891Z,92.98
2017-11-29T21:11:37.412Z,93.21
2017-11-29T21:14:07.041Z,93.13
2017-11-29T21:16:34.907Z,93.26
2017-11-29T21:19:03.438Z,93.31
2017-11-29T21:21:31.284Z,93.23
2017-11-29T21:24:01.879Z,93.22
2017-11-29T21:26:31.218Z,93.12
2017-11-29T21:29:00.651Z,92.92
2017-11-29T21:31:30.438Z,92.85
2017-11-29T21:33:58.374Z,92.96
2017-11-29T21:36:28.026Z,92.90
2017-11-29T21:38:56.854Z,92.94
2017-11-29T21:41:24.541Z,93.10
2017-11-29T21:43:52.305Z,92.95
2017-11-29T21:46:19.981Z,92.95
2017-11-29T21:48:48.528Z,92.89
2017-11-29T21:51:17.007Z,92.79
2017-11-29T21:53:46.527Z,92.67
2017-11-29T21:56:14.374Z,92.72
2017-11-29T21:58:43.730Z,92.87
2017-11-29T22:01:11.770Z,92.96
2017-11-29T22:03:39.456Z,93.22
2017-11-29T22:06:07.155Z,93.37
2017-11-29T22:08:34.951Z,93.43
2017-11-29T22:11:03.386Z,93.42
2017-11-29T22:13:32.672Z,93.45
2017-11-29T22:16:00.432Z,93.59
2017-11-29T22:18:29.042Z,93.71
2017-11-29T22:20:56.738Z,93.85
2017-11-29T22:23:24.524Z,93.94
2017-11-29T22:25:52.409Z,94.01
2017-11-29T22:28:20.147Z,93.99
2017-11-29T22:30:50.454Z,94.01
2017-11-29T22:33:20.007Z,94.11
2017-11-29T22:35:47.863Z,94.17
2017-11-29T22:38:17.317Z,94.13
2017-11-29T22:40:45.093Z,94.20
2017-11-29T22:43:15.015Z,94.23
2017-11-29T22:45:43.479Z,94.23
2017-11-29T22:48:11.240Z,94.16
2017-11-29T22:50:38.921Z,94.27
2017-11-29T22:53:06.603Z,94.30
2017-11-29T22:55:34.353Z,94.39
2017-11-29T22:58:02.833Z,94.44
2017-11-29T23:00:32.517Z,94.55
2017-11-29T23:03:00.770Z,94.70
2017-11-29T23:05:29.283Z,94.79
2017-11-29T23:07:57.035Z,94.82
2017-11-29T23:10:26.491Z,94.90
2017-11-29T23:12:55.985Z,95.03
2017-11-29T23:15:23.629Z,95.10
2017-11-29T23:17:51.383Z,95.16
2017-11-29T23:20:19.055Z,94.92
2017-11-29T23:22:48.470Z,94.68
2017-11-29T23:25:16.305Z,94.63
2017-11-29T23:27:43.973Z,94.48
2017-11-29T23:30:12.597Z,94.43
2017-11-29T23:32:40.427Z,94.35
2017-11-29T23:48:09.232Z,93.91
2017-11-29T23:50:37.033Z,93.67
2017-11-29T23:53:07.329Z,93.63
2017-11-29T23:55:35.066Z,93.61
2017-11-29T23:58:02.696Z,93.16
